createdAt,value
2018-06-14T00:00:04.894Z,95679.00
2018-06-14T00:00:36.919Z,95681.00
2018-06-14T00:01:08.924Z,95682.00
2018-06-14T00:01:40.930Z,95683.00
2018-06-14T00:02:12.951Z,95681.00
2018-06-14T00:02:45.030Z,95677.00
2018-06-14T00:03:17.066Z,95680.00
2018-06-14T00:03:49.061Z,95682.00
2018-06-14T00:04:21.060Z,95682.00
2018-06-14T00:04:53.071Z,95679.00
2018-06-14T00:05:25.120Z,95683.00
2018-06-14T00:05:57.122Z,95686.00
2018-06-14T00:06:29.156Z,95682.00
2018-06-14T00:07:01.169Z,95686.00
2018-06-14T00:07:33.179Z,95684.00
2018-06-14T00:08:05.200Z,95686.00
2018-06-14T00:08:37.262Z,95693.00
2018-06-14T00:09:09.279Z,95688.00
2018-06-14T00:09:41.290Z,95688.00
2018-06-14T00:10:13.299Z,95685.00
2018-06-14T00:10:45.318Z,95683.00
2018-06-14T00:11:17.337Z,95685.00
2018-06-14T00:11:49.385Z,95687.00
2018-06-14T00:12:21.419Z,95687.00
2018-06-14T00:12:53.439Z,95688.00
2018-06-14T00:13:25.496Z,95688.00
2018-06-14T00:13:57.536Z,95686.00
2018-06-14T00:14:29.543Z,95685.00
2018-06-14T00:15:01.570Z,95688.00
2018-06-14T00:15:33.586Z,95689.00
2018-06-14T00:16:05.601Z,95681.00
2018-06-14T00:16:37.614Z,95687.00
2018-06-14T00:17:09.627Z,95683.00
2018-06-14T00:17:41.642Z,95686.00
2018-06-14T00:18:13.656Z,95684.00
2018-06-14T00:18:45.669Z,95682.00
2018-06-14T00:19:17.671Z,95687.00
2018-06-14T00:19:49.691Z,95681.00
2018-06-14T00:20:21.706Z,95685.00
2018-06-14T00:22:45.901Z,95683.00
2018-06-14T00:23:17.902Z,95682.00
2018-06-14T00:23:49.919Z,95686.00
2018-06-14T00:24:21.938Z,95680.00
2018-06-14T00:24:53.947Z,95681.00
2018-06-14T00:25:25.961Z,95683.00
2018-06-14T00:25:57.963Z,95680.00
2018-06-14T00:26:29.983Z,95675.00
2018-06-14T00:27:01.991Z,95680.00
2018-06-14T00:27:34.084Z,95678.00
2018-06-14T00:28:06.185Z,95678.00
2018-06-14T00:28:38.288Z,95681.00
2018-06-14T00:29:10.307Z,95679.00
2018-06-14T00:29:42.340Z,95684.00
2018-06-14T00:30:14.374Z,95681.00
2018-06-14T00:30:46.394Z,95687.00
2018-06-14T00:31:18.412Z,95682.00
2018-06-14T00:31:50.430Z,95683.00
2018-06-14T00:32:22.444Z,95687.00
2018-06-14T00:32:54.468Z,95686.00
2018-06-14T00:33:26.482Z,95686.00
2018-06-14T00:33:58.493Z,95685.00
2018-06-14T00:34:30.521Z,95685.00
2018-06-14T00:35:02.540Z,95687.00
2018-06-14T00:35:34.602Z,95685.00
2018-06-14T00:36:06.641Z,95683.00
2018-06-14T00:36:38.661Z,95685.00
2018-06-14T00:37:10.686Z,95688.00
2018-06-14T00:37:42.701Z,95688.00
2018-06-14T00:38:14.718Z,95690.00
2018-06-14T00:38:46.814Z,95691.00
2018-06-14T00:39:18.903Z,95686.00
2018-06-14T00:44:12.626Z,95686.00
2018-06-14T00:44:44.642Z,95688.00
2018-06-14T00:45:16.701Z,95687.00
2018-06-14T00:45:48.747Z,95689.00
2018-06-14T00:46:20.783Z,95689.00
2018-06-14T00:46:52.810Z,95688.00
2018-06-14T00:47:24.842Z,95692.00
2018-06-14T00:47:56.877Z,95688.00
2018-06-14T00:48:28.901Z,95692.00
2018-06-14T00:49:00.930Z,95686.00
2018-06-14T00:49:32.957Z,95687.00
2018-06-14T00:50:04.975Z,95685.00
2018-06-14T00:50:37.015Z,95687.00
2018-06-14T00:51:09.065Z,95690.00
2018-06-14T00:51:41.082Z,95687.00
2018-06-14T00:52:13.113Z,95684.00
2018-06-14T00:52:45.125Z,95688.00
2018-06-14T00:53:17.158Z,95684.00
2018-06-14T00:53:49.190Z,95684.00
2018-06-14T00:54:21.203Z,95682.00
2018-06-14T00:54:53.226Z,95683.00
2018-06-14T00:55:25.238Z,95687.00
2018-06-14T00:55:57.257Z,95681.00
2018-06-14T00:56:29.324Z,95681.00
2018-06-14T00:57:01.331Z,95680.00
2018-06-14T00:57:33.387Z,95689.00
2018-06-14T00:58:05.386Z,95686.00
2018-06-14T00:58:37.416Z,95685.00
2018-06-14T00:59:09.435Z,95685.00
2018-06-14T00:59:41.501Z,95688.00
2018-06-14T01:00:13.505Z,95686.00
2018-06-14T01:00:45.518Z,95687.00
2018-06-14T01:01:17.547Z,95687.00
2018-06-14T01:01:49.586Z,95687.00
2018-06-14T01:02:21.637Z,95684.00
2018-06-14T01:02:53.639Z,95684.00
2018-06-14T01:03:25.658Z,95686.00
2018-06-14T01:03:57.681Z,95681.00
2018-06-14T01:04:29.695Z,95683.00
2018-06-14T01:05:01.714Z,95682.00
2018-06-14T01:05:33.791Z,95686.00
2018-06-14T01:06:05.829Z,95682.00
2018-06-14T01:06:37.850Z,95684.00
2018-06-14T01:07:09.897Z,95685.00
2018-06-14T01:07:41.930Z,95682.00
2018-06-14T01:08:13.950Z,95686.00
2018-06-14T01:08:45.972Z,95687.00
2018-06-14T01:09:17.994Z,95683.00
2018-06-14T01:09:50.032Z,95685.00
2018-06-14T01:10:22.050Z,95683.00
2018-06-14T01:10:54.059Z,95683.00
2018-06-14T01:11:26.086Z,95683.00
2018-06-14T01:11:58.104Z,95681.00
2018-06-14T01:12:30.152Z,95678.00
2018-06-14T01:13:02.208Z,95674.00
2018-06-14T01:13:34.199Z,95677.00
2018-06-14T01:14:06.223Z,95679.00
2018-06-14T01:14:38.266Z,95681.00
2018-06-14T01:15:10.286Z,95676.00
2018-06-14T01:15:42.327Z,95678.00
2018-06-14T01:16:14.349Z,95681.00
2018-06-14T01:16:46.420Z,95678.00
2018-06-14T01:17:18.434Z,95680.00
2018-06-14T01:17:50.477Z,95681.00
2018-06-14T01:18:22.494Z,95682.00
2018-06-14T01:18:54.526Z,95681.00
2018-06-14T01:19:26.538Z,95680.00
2018-06-14T01:19:58.551Z,95680.00
2018-06-14T01:20:30.587Z,95680.00
2018-06-14T01:21:02.616Z,95682.00
2018-06-14T01:21:34.633Z,95680.00
2018-06-14T01:22:06.663Z,95681.00
2018-06-14T01:22:38.696Z,95677.00
2018-06-14T01:23:10.729Z,95681.00
2018-06-14T01:23:42.732Z,95677.00
2018-06-14T01:24:14.776Z,95673.00
2018-06-14T01:24:46.793Z,95675.00
2018-06-14T01:25:18.810Z,95676.00
2018-06-14T01:25:50.835Z,95680.00
2018-06-14T01:26:22.874Z,95680.00
2018-06-14T01:26:54.887Z,95682.00
2018-06-14T01:27:26.905Z,95682.00
2018-06-14T01:27:58.966Z,95681.00
2018-06-14T01:28:30.977Z,95681.00
2018-06-14T01:29:02.995Z,95681.00
2018-06-14T01:29:35.024Z,95682.00
2018-06-14T01:30:07.035Z,95682.00
2018-06-14T01:30:39.117Z,95684.00
2018-06-14T01:31:11.153Z,95683.00
2018-06-14T01:31:43.168Z,95679.00
2018-06-14T01:32:15.286Z,95682.00
2018-06-14T01:32:47.415Z,95678.00
2018-06-14T01:33:19.438Z,95681.00
2018-06-14T01:33:51.474Z,95680.00
2018-06-14T01:34:23.897Z,95684.00
2018-06-14T01:34:55.815Z,95681.00
2018-06-14T01:35:27.827Z,95679.00
2018-06-14T01:35:59.836Z,95678.00
2018-06-14T01:36:31.876Z,95678.00
2018-06-14T01:37:03.889Z,95674.00
2018-06-14T01:37:35.927Z,95674.00
2018-06-14T01:38:07.999Z,95668.00
2018-06-14T01:38:40.007Z,95672.00
2018-06-14T01:39:12.037Z,95678.00
2018-06-14T01:39:44.048Z,95675.00
2018-06-14T01:40:16.067Z,95670.00
2018-06-14T01:40:48.137Z,95669.00
2018-06-14T01:41:20.158Z,95672.00
2018-06-14T01:41:52.195Z,95674.00
2018-06-14T01:42:24.240Z,95672.00
2018-06-14T01:42:56.232Z,95669.00
2018-06-14T01:43:28.285Z,95669.00
2018-06-14T01:44:00.314Z,95665.00
2018-06-14T01:44:32.335Z,95668.00
2018-06-14T01:45:04.349Z,95665.00
2018-06-14T01:45:36.382Z,95666.00
2018-06-14T01:46:08.415Z,95661.00
2018-06-14T01:46:40.452Z,95664.00
2018-06-14T01:47:12.455Z,95663.00
2018-06-14T01:47:44.481Z,95662.00
2018-06-14T01:48:16.525Z,95663.00
2018-06-14T01:48:48.599Z,95661.00
2018-06-14T01:49:20.722Z,95664.00
2018-06-14T01:49:52.801Z,95662.00
2018-06-14T01:50:24.821Z,95660.00
2018-06-14T01:50:56.842Z,95661.00
2018-06-14T01:51:28.911Z,95661.00
2018-06-14T01:52:00.914Z,95660.00
2018-06-14T01:52:32.937Z,95663.00
2018-06-14T01:53:04.949Z,95660.00
2018-06-14T01:53:37.018Z,95664.00
2018-06-14T01:54:09.043Z,95662.00
2018-06-14T01:54:41.062Z,95661.00
2018-06-14T01:55:13.181Z,95666.00
2018-06-14T01:55:45.181Z,95662.00
2018-06-14T01:56:17.194Z,95659.00
2018-06-14T01:56:49.243Z,95664.00
2018-06-14T01:57:21.264Z,95665.00
2018-06-14T01:57:53.290Z,95661.00
2018-06-14T01:58:25.339Z,95664.00
2018-06-14T01:58:57.400Z,95663.00
2018-06-14T01:59:29.435Z,95664.00
2018-06-14T02:00:01.485Z,95662.00
2018-06-14T02:00:33.503Z,95662.00
2018-06-14T02:01:05.545Z,95663.00
2018-06-14T02:01:37.554Z,95656.00
2018-06-14T02:02:09.587Z,95660.00
2018-06-14T02:02:41.620Z,95667.00
2018-06-14T02:03:13.643Z,95666.00
2018-06-14T02:03:45.663Z,95662.00
2018-06-14T02:04:17.680Z,95668.00
2018-06-14T02:04:49.703Z,95665.00
2018-06-14T02:05:21.746Z,95665.00
2018-06-14T02:05:53.747Z,95669.00
2018-06-14T02:06:25.768Z,95668.00
2018-06-14T02:06:57.776Z,95663.00
2018-06-14T02:07:29.791Z,95669.00
2018-06-14T02:08:01.828Z,95670.00
2018-06-14T02:08:33.862Z,95665.00
2018-06-14T02:09:05.893Z,95675.00
2018-06-14T02:09:37.886Z,95677.00
2018-06-14T02:10:09.911Z,95669.00
2018-06-14T02:10:41.945Z,95673.00
2018-06-14T02:11:14.034Z,95671.00
2018-06-14T02:11:46.033Z,95667.00
2018-06-14T02:12:18.042Z,95667.00
2018-06-14T02:12:50.081Z,95667.00
2018-06-14T02:13:22.126Z,95665.00
2018-06-14T02:13:54.152Z,95667.00
2018-06-14T02:14:26.163Z,95662.00
2018-06-14T02:14:58.174Z,95664.00
2018-06-14T02:15:30.212Z,95664.00
2018-06-14T02:16:02.248Z,95668.00
2018-06-14T02:16:34.298Z,95664.00
2018-06-14T02:17:06.386Z,95668.00
2018-06-14T02:17:38.440Z,95657.00
2018-06-14T02:18:10.443Z,95663.00
2018-06-14T02:18:42.478Z,95664.00
2018-06-14T02:19:14.506Z,95659.00
2018-06-14T02:19:46.519Z,95658.00
2018-06-14T02:20:18.540Z,95661.00
2018-06-14T02:20:50.607Z,95657.00
2018-06-14T02:21:22.611Z,95658.00
2018-06-14T02:21:54.635Z,95658.00
2018-06-14T02:22:26.651Z,95660.00
2018-06-14T02:22:58.694Z,95655.00
2018-06-14T02:23:30.733Z,95650.00
2018-06-14T02:24:02.761Z,95651.00
2018-06-14T02:24:34.762Z,95652.00
2018-06-14T02:25:06.787Z,95651.00
2018-06-14T02:25:38.798Z,95648.00
2018-06-14T02:26:10.807Z,95650.00
2018-06-14T02:26:42.826Z,95647.00
2018-06-14T02:27:14.946Z,95652.00
2018-06-14T02:27:46.931Z,95653.00
2018-06-14T02:28:18.942Z,95655.00
2018-06-14T02:28:50.973Z,95648.00
2018-06-14T02:29:23.001Z,95650.00
2018-06-14T02:29:55.035Z,95657.00
2018-06-14T02:30:27.067Z,95654.00
2018-06-14T02:30:59.114Z,95652.00
2018-06-14T02:31:31.126Z,95659.00
2018-06-14T02:32:03.150Z,95653.00
2018-06-14T02:32:35.238Z,95652.00
2018-06-14T02:33:07.259Z,95652.00
2018-06-14T02:33:39.287Z,95656.00
2018-06-14T02:34:11.299Z,95654.00
2018-06-14T02:34:43.322Z,95653.00
2018-06-14T02:35:15.357Z,95654.00
2018-06-14T02:35:47.367Z,95653.00
2018-06-14T02:36:19.379Z,95651.00
2018-06-14T02:36:51.382Z,95652.00
2018-06-14T02:37:23.457Z,95657.00
2018-06-14T02:37:55.486Z,95654.00
2018-06-14T02:38:27.523Z,95654.00
2018-06-14T02:38:59.536Z,95653.00
2018-06-14T02:39:31.569Z,95650.00
2018-06-14T02:40:03.587Z,95655.00
2018-06-14T02:40:35.606Z,95651.00
2018-06-14T02:41:07.629Z,95655.00
2018-06-14T02:41:39.666Z,95660.00
2018-06-14T02:42:11.705Z,95655.00
2018-06-14T02:42:43.731Z,95654.00
2018-06-14T02:43:15.754Z,95654.00
2018-06-14T02:43:47.771Z,95656.00
2018-06-14T02:44:19.802Z,95656.00
2018-06-14T02:44:51.820Z,95656.00
2018-06-14T02:45:23.887Z,95650.00
2018-06-14T02:45:55.932Z,95654.00
2018-06-14T02:46:27.967Z,95651.00
2018-06-14T02:47:00.038Z,95650.00
2018-06-14T02:47:32.079Z,95654.00
2018-06-14T02:48:04.093Z,95651.00
2018-06-14T02:48:36.110Z,95657.00
2018-06-14T02:49:08.143Z,95654.00
2018-06-14T02:49:40.162Z,95653.00
2018-06-14T02:50:12.193Z,95654.00
2018-06-14T02:50:44.227Z,95656.00
2018-06-14T02:51:16.252Z,95657.00
2018-06-14T02:51:48.280Z,95657.00
2018-06-14T02:52:20.334Z,95654.00
2018-06-14T02:52:52.354Z,95652.00
2018-06-14T02:53:24.369Z,95653.00
2018-06-14T02:53:56.386Z,95653.00
2018-06-14T02:54:28.393Z,95655.00
2018-06-14T02:55:00.421Z,95651.00
2018-06-14T02:55:32.450Z,95652.00
2018-06-14T02:56:04.479Z,95657.00
2018-06-14T02:56:36.496Z,95659.00
2018-06-14T02:57:08.527Z,95654.00
2018-06-14T02:57:40.596Z,95654.00
2018-06-14T02:58:12.620Z,95652.00
2018-06-14T02:58:44.631Z,95653.00
2018-06-14T02:59:16.645Z,95661.00
2018-06-14T02:59:48.689Z,95656.00
2018-06-14T03:00:20.703Z,95657.00
2018-06-14T03:00:52.717Z,95661.00
2018-06-14T03:01:24.735Z,95661.00
2018-06-14T03:01:56.749Z,95660.00
2018-06-14T03:02:28.784Z,95666.00
2018-06-14T03:03:00.891Z,95663.00
2018-06-14T03:03:32.940Z,95666.00
2018-06-14T03:04:04.975Z,95665.00
2018-06-14T03:04:36.995Z,95664.00
2018-06-14T03:05:09.014Z,95666.00
2018-06-14T03:05:41.028Z,95668.00
2018-06-14T03:06:13.037Z,95665.00
2018-06-14T03:06:45.039Z,95662.00
2018-06-14T03:07:17.056Z,95665.00
2018-06-14T03:07:49.066Z,95665.00
2018-06-14T03:08:21.106Z,95670.00
2018-06-14T03:08:53.158Z,95664.00
2018-06-14T03:09:25.183Z,95661.00
2018-06-14T03:09:57.235Z,95662.00
2018-06-14T03:10:29.222Z,95661.00
2018-06-14T03:11:01.252Z,95660.00
2018-06-14T03:11:33.279Z,95662.00
2018-06-14T03:12:05.291Z,95660.00
2018-06-14T03:12:37.315Z,95655.00
2018-06-14T03:13:09.334Z,95655.00
2018-06-14T03:13:41.352Z,95651.00
2018-06-14T03:14:13.360Z,95653.00
2018-06-14T03:14:45.400Z,95653.00
2018-06-14T03:15:17.427Z,95653.00
2018-06-14T03:15:49.438Z,95653.00
2018-06-14T03:16:21.447Z,95650.00
2018-06-14T03:16:53.468Z,95652.00
2018-06-14T03:17:25.494Z,95657.00
2018-06-14T03:17:57.552Z,95656.00
2018-06-14T03:18:29.572Z,95656.00
2018-06-14T03:19:01.609Z,95653.00
2018-06-14T03:19:33.626Z,95652.00
2018-06-14T03:20:05.651Z,95653.00
2018-06-14T03:20:37.671Z,95654.00
2018-06-14T03:21:09.696Z,95654.00
2018-06-14T03:21:41.715Z,95653.00
2018-06-14T03:22:13.756Z,95656.00
2018-06-14T03:22:45.774Z,95660.00
2018-06-14T03:23:17.805Z,95656.00
2018-06-14T03:23:49.842Z,95656.00
2018-06-14T03:24:21.853Z,95657.00
2018-06-14T03:24:53.871Z,95656.00
2018-06-14T03:25:25.904Z,95652.00
2018-06-14T03:25:57.925Z,95653.00
2018-06-14T03:26:30.022Z,95650.00
2018-06-14T03:27:02.028Z,95654.00
2018-06-14T03:27:34.063Z,95647.00
2018-06-14T03:28:06.072Z,95649.00
2018-06-14T03:28:38.087Z,95650.00
2018-06-14T03:29:10.126Z,95649.00
2018-06-14T03:29:42.180Z,95645.00
2018-06-14T03:30:14.208Z,95644.00
2018-06-14T03:30:46.222Z,95645.00
2018-06-14T03:31:18.245Z,95646.00
2018-06-14T03:31:50.249Z,95646.00
2018-06-14T03:32:22.274Z,95647.00
2018-06-14T03:32:54.283Z,95646.00
2018-06-14T03:33:26.323Z,95648.00
2018-06-14T03:33:58.345Z,95645.00
2018-06-14T03:34:30.353Z,95650.00
2018-06-14T03:35:02.391Z,95647.00
2018-06-14T03:35:34.397Z,95641.00
2018-06-14T03:36:06.424Z,95649.00
2018-06-14T03:36:38.436Z,95646.00
2018-06-14T03:37:10.488Z,95652.00
2018-06-14T03:37:42.506Z,95651.00
2018-06-14T03:38:14.547Z,95649.00
2018-06-14T03:38:46.566Z,95648.00
2018-06-14T03:39:18.583Z,95649.00
2018-06-14T03:39:50.651Z,95649.00
2018-06-14T03:40:22.672Z,95649.00
2018-06-14T03:40:54.694Z,95652.00
2018-06-14T03:41:26.710Z,95646.00
2018-06-14T03:41:58.729Z,95647.00
2018-06-14T03:42:30.769Z,95653.00
2018-06-14T03:43:02.778Z,95652.00
2018-06-14T03:43:34.813Z,95652.00
2018-06-14T03:44:06.826Z,95651.00
2018-06-14T03:44:38.838Z,95649.00
2018-06-14T03:45:10.983Z,95654.00
2018-06-14T03:45:42.998Z,95651.00
2018-06-14T03:46:15.019Z,95656.00
2018-06-14T03:46:47.042Z,95653.00
2018-06-14T03:47:19.059Z,95658.00
2018-06-14T03:47:51.094Z,95655.00
2018-06-14T03:48:23.122Z,95649.00
2018-06-14T03:48:55.134Z,95653.00
2018-06-14T03:49:27.151Z,95654.00
2018-06-14T03:49:59.168Z,95656.00
2018-06-14T03:50:31.177Z,95653.00
2018-06-14T03:51:03.242Z,95650.00
2018-06-14T03:51:35.259Z,95656.00
2018-06-14T03:52:07.379Z,95653.00
2018-06-14T03:52:39.409Z,95658.00
2018-06-14T03:53:11.413Z,95648.00
2018-06-14T03:53:43.427Z,95649.00
2018-06-14T03:54:15.459Z,95648.00
2018-06-14T03:54:47.569Z,95644.00
2018-06-14T03:55:19.609Z,95652.00
2018-06-14T03:55:51.610Z,95647.00
2018-06-14T03:56:23.652Z,95644.00
2018-06-14T03:56:55.669Z,95647.00
2018-06-14T03:57:27.689Z,95647.00
2018-06-14T03:57:59.714Z,95654.00
2018-06-14T03:58:31.737Z,95652.00
2018-06-14T03:59:03.758Z,95650.00
2018-06-14T03:59:35.780Z,95648.00
2018-06-14T04:00:07.833Z,95653.00
2018-06-14T04:00:39.853Z,95653.00
2018-06-14T04:01:11.867Z,95650.00
2018-06-14T04:01:43.897Z,95656.00
2018-06-14T04:02:15.948Z,95654.00
2018-06-14T04:02:47.953Z,95654.00
2018-06-14T04:03:19.973Z,95652.00
2018-06-14T04:03:52.005Z,95650.00
2018-06-14T04:04:24.035Z,95652.00
2018-06-14T04:04:56.065Z,95650.00
2018-06-14T04:05:28.105Z,95646.00
2018-06-14T04:06:00.114Z,95650.00
2018-06-14T04:06:32.147Z,95649.00
2018-06-14T04:07:04.218Z,95649.00
2018-06-14T04:07:36.232Z,95647.00
2018-06-14T04:08:08.267Z,95648.00
2018-06-14T04:08:40.263Z,95650.00
2018-06-14T04:09:12.273Z,95649.00
2018-06-14T04:09:44.301Z,95649.00
2018-06-14T04:10:16.325Z,95647.00
2018-06-14T04:10:48.347Z,95646.00
2018-06-14T04:11:20.368Z,95646.00
2018-06-14T04:11:52.373Z,95644.00
2018-06-14T04:12:24.379Z,95651.00
2018-06-14T04:12:56.408Z,95647.00
2018-06-14T04:13:28.419Z,95645.00
2018-06-14T04:14:00.461Z,95644.00
2018-06-14T04:14:32.477Z,95646.00
2018-06-14T04:15:04.513Z,95649.00
2018-06-14T04:15:36.586Z,95646.00
2018-06-14T04:16:08.621Z,95647.00
2018-06-14T04:16:40.644Z,95643.00
2018-06-14T04:17:12.671Z,95648.00
2018-06-14T04:17:44.694Z,95648.00
2018-06-14T04:18:16.724Z,95654.00
2018-06-14T04:18:48.755Z,95649.00
2018-06-14T04:19:20.767Z,95651.00
2018-06-14T04:19:52.790Z,95652.00
2018-06-14T04:20:24.898Z,95655.00
2018-06-14T04:20:56.847Z,95658.00
2018-06-14T04:21:28.869Z,95659.00
2018-06-14T04:22:00.895Z,95659.00
2018-06-14T04:22:32.946Z,95659.00
2018-06-14T04:23:04.987Z,95656.00
2018-06-14T04:23:37.001Z,95660.00
2018-06-14T04:24:09.026Z,95660.00
2018-06-14T04:24:41.066Z,95664.00
2018-06-14T04:25:13.100Z,95659.00
2018-06-14T04:25:45.095Z,95657.00
2018-06-14T04:26:17.120Z,95659.00
2018-06-14T04:26:49.125Z,95664.00
2018-06-14T04:27:21.194Z,95661.00
2018-06-14T04:27:53.154Z,95668.00
2018-06-14T04:28:25.167Z,95663.00
2018-06-14T04:28:57.173Z,95663.00
2018-06-14T04:29:29.188Z,95659.00
2018-06-14T04:30:01.245Z,95666.00
2018-06-14T04:30:33.258Z,95663.00
2018-06-14T04:31:05.409Z,95662.00
2018-06-14T04:31:37.410Z,95660.00
2018-06-14T04:32:09.471Z,95660.00
2018-06-14T04:32:41.489Z,95659.00
2018-06-14T04:33:13.502Z,95662.00
2018-06-14T04:33:45.539Z,95662.00
2018-06-14T04:34:17.562Z,95665.00
2018-06-14T04:34:49.577Z,95663.00
2018-06-14T04:35:21.591Z,95665.00
2018-06-14T04:35:53.692Z,95666.00
2018-06-14T04:36:25.703Z,95666.00
2018-06-14T04:36:57.730Z,95672.00
2018-06-14T04:37:29.747Z,95669.00
2018-06-14T04:38:01.791Z,95672.00
2018-06-14T04:38:33.900Z,95672.00
2018-06-14T04:39:05.924Z,95671.00
2018-06-14T04:39:37.942Z,95677.00
2018-06-14T04:40:09.960Z,95676.00
2018-06-14T04:40:41.977Z,95674.00
2018-06-14T04:41:14.006Z,95667.00
2018-06-14T04:41:46.031Z,95667.00
2018-06-14T04:42:18.052Z,95660.00
2018-06-14T04:42:50.074Z,95664.00
2018-06-14T04:43:22.121Z,95663.00
2018-06-14T04:43:54.152Z,95658.00
2018-06-14T04:44:26.177Z,95662.00
2018-06-14T04:44:58.206Z,95664.00
2018-06-14T04:45:30.217Z,95662.00
2018-06-14T04:46:02.252Z,95660.00
2018-06-14T04:46:34.642Z,95651.00
2018-06-14T04:47:06.541Z,95654.00
2018-06-14T04:47:38.568Z,95655.00
2018-06-14T04:48:10.597Z,95660.00
2018-06-14T04:48:42.606Z,95654.00
2018-06-14T04:49:14.617Z,95651.00
2018-06-14T04:49:46.627Z,95654.00
2018-06-14T04:50:18.640Z,95655.00
2018-06-14T04:50:50.647Z,95654.00
2018-06-14T04:51:22.661Z,95661.00
2018-06-14T04:51:54.704Z,95655.00
2018-06-14T04:52:26.735Z,95658.00
2018-06-14T04:52:58.753Z,95662.00
2018-06-14T04:53:30.766Z,95662.00
2018-06-14T04:54:02.768Z,95664.00
2018-06-14T04:54:34.804Z,95664.00
2018-06-14T04:55:06.833Z,95664.00
2018-06-14T04:55:38.857Z,95666.00
2018-06-14T04:56:10.899Z,95672.00
2018-06-14T04:56:42.935Z,95673.00
2018-06-14T04:57:14.966Z,95673.00
2018-06-14T04:57:46.991Z,95672.00
2018-06-14T04:58:19.018Z,95673.00
2018-06-14T04:58:51.054Z,95667.00
2018-06-14T04:59:23.065Z,95677.00
2018-06-14T04:59:55.075Z,95676.00
2018-06-14T05:00:27.087Z,95674.00
2018-06-14T05:00:59.116Z,95678.00
2018-06-14T05:01:31.191Z,95678.00
2018-06-14T05:02:03.216Z,95675.00
2018-06-14T05:02:35.249Z,95675.00
2018-06-14T05:03:07.272Z,95679.00
2018-06-14T05:03:39.280Z,95678.00
2018-06-14T05:04:11.299Z,95670.00
2018-06-14T05:04:43.307Z,95677.00
2018-06-14T05:05:15.350Z,95675.00
2018-06-14T05:05:47.363Z,95680.00
2018-06-14T05:06:19.390Z,95679.00
2018-06-14T05:06:51.410Z,95673.00
2018-06-14T05:07:23.440Z,95674.00
2018-06-14T05:07:55.454Z,95675.00
2018-06-14T05:08:27.486Z,95674.00
2018-06-14T05:08:59.503Z,95676.00
2018-06-14T05:09:31.535Z,95681.00
2018-06-14T05:10:03.563Z,95678.00
2018-06-14T05:10:35.610Z,95688.00
2018-06-14T05:11:07.653Z,95687.00
2018-06-14T05:11:39.718Z,95683.00
2018-06-14T05:12:11.919Z,95683.00
2018-06-14T05:12:43.965Z,95688.00
2018-06-14T05:13:16.020Z,95688.00
2018-06-14T05:13:48.274Z,95685.00
2018-06-14T05:14:20.319Z,95685.00
2018-06-14T05:14:52.340Z,95685.00
2018-06-14T05:15:24.373Z,95687.00
2018-06-14T05:15:56.816Z,95682.00
2018-06-14T05:16:28.713Z,95687.00
2018-06-14T05:17:00.764Z,95684.00
2018-06-14T05:17:32.861Z,95687.00
2018-06-14T05:18:04.938Z,95681.00
2018-06-14T05:18:36.896Z,95685.00
2018-06-14T05:19:08.933Z,95679.00
2018-06-14T05:19:40.961Z,95681.00
2018-06-14T05:20:13.003Z,95682.00
2018-06-14T05:20:45.013Z,95679.00
2018-06-14T05:21:17.065Z,95680.00
2018-06-14T05:21:49.145Z,95674.00
2018-06-14T05:22:21.211Z,95675.00
2018-06-14T05:22:53.231Z,95675.00
2018-06-14T05:23:25.286Z,95680.00
2018-06-14T05:23:57.592Z,95678.00
2018-06-14T05:24:29.621Z,95678.00
2018-06-14T05:25:01.622Z,95678.00
2018-06-14T05:25:33.651Z,95675.00
2018-06-14T05:26:05.682Z,95681.00
2018-06-14T05:26:37.687Z,95681.00
2018-06-14T05:27:09.721Z,95681.00
2018-06-14T05:27:41.735Z,95682.00
2018-06-14T05:28:13.755Z,95680.00
2018-06-14T05:28:45.775Z,95682.00
2018-06-14T05:29:17.810Z,95682.00
2018-06-14T05:29:49.837Z,95686.00
2018-06-14T05:30:21.868Z,95684.00
2018-06-14T05:30:53.879Z,95685.00
2018-06-14T05:31:25.928Z,95684.00
2018-06-14T05:31:57.952Z,95685.00
2018-06-14T05:32:29.985Z,95682.00
2018-06-14T05:33:02.010Z,95681.00
2018-06-14T05:33:34.020Z,95678.00
2018-06-14T05:34:06.040Z,95682.00
2018-06-14T05:34:38.060Z,95680.00
2018-06-14T05:35:10.078Z,95683.00
2018-06-14T05:35:42.084Z,95677.00
2018-06-14T05:36:14.101Z,95682.00
2018-06-14T05:36:46.185Z,95683.00
2018-06-14T05:37:18.225Z,95681.00
2018-06-14T05:37:50.243Z,95682.00
2018-06-14T05:38:22.276Z,95682.00
2018-06-14T05:38:54.304Z,95686.00
2018-06-14T05:39:26.326Z,95685.00
2018-06-14T05:39:58.336Z,95682.00
2018-06-14T05:40:30.490Z,95683.00
2018-06-14T05:41:02.506Z,95687.00
2018-06-14T05:41:34.554Z,95680.00
2018-06-14T05:42:06.597Z,95684.00
2018-06-14T05:42:38.642Z,95683.00
2018-06-14T05:43:10.693Z,95683.00
2018-06-14T05:43:42.698Z,95682.00
2018-06-14T05:44:14.698Z,95684.00
2018-06-14T05:44:46.727Z,95680.00
2018-06-14T05:45:18.737Z,95679.00
2018-06-14T05:45:50.784Z,95679.00
2018-06-14T05:46:22.805Z,95684.00
2018-06-14T05:46:54.826Z,95679.00
2018-06-14T05:47:26.847Z,95681.00
2018-06-14T05:47:58.879Z,95684.00
2018-06-14T05:48:30.885Z,95681.00
2018-06-14T05:49:02.897Z,95684.00
2018-06-14T05:49:34.902Z,95685.00
2018-06-14T05:50:06.951Z,95686.00
2018-06-14T05:50:38.958Z,95688.00
2018-06-14T05:51:10.981Z,95685.00
2018-06-14T05:51:42.996Z,95684.00
2018-06-14T05:52:15.040Z,95687.00
2018-06-14T05:52:47.071Z,95687.00
2018-06-14T05:53:19.147Z,95688.00
2018-06-14T05:53:51.174Z,95696.00
2018-06-14T05:54:23.184Z,95692.00
2018-06-14T05:54:55.217Z,95696.00
2018-06-14T05:55:27.243Z,95689.00
2018-06-14T05:55:59.259Z,95688.00
2018-06-14T05:56:31.287Z,95692.00
2018-06-14T05:57:03.295Z,95689.00
2018-06-14T05:57:35.330Z,95690.00
2018-06-14T05:58:07.759Z,95691.00
2018-06-14T05:58:39.677Z,95690.00
2018-06-14T05:59:11.693Z,95688.00
2018-06-14T05:59:43.712Z,95691.00
2018-06-14T06:00:15.740Z,95694.00
2018-06-14T06:00:47.781Z,95693.00
2018-06-14T06:01:19.792Z,95699.00
2018-06-14T06:01:51.814Z,95694.00
2018-06-14T06:02:23.825Z,95691.00
2018-06-14T06:02:55.915Z,95690.00
2018-06-14T06:03:27.893Z,95693.00
2018-06-14T06:03:59.921Z,95693.00
2018-06-14T06:04:31.958Z,95692.00
2018-06-14T06:05:04.007Z,95695.00
2018-06-14T06:05:36.008Z,95694.00
2018-06-14T06:06:08.033Z,95693.00
2018-06-14T06:06:40.026Z,95692.00
2018-06-14T06:07:12.057Z,95692.00
2018-06-14T06:07:44.080Z,95690.00
2018-06-14T06:08:16.100Z,95689.00
2018-06-14T06:08:48.115Z,95693.00
2018-06-14T06:09:20.152Z,95689.00
2018-06-14T06:09:52.140Z,95687.00
2018-06-14T06:10:24.189Z,95691.00
2018-06-14T06:10:56.214Z,95689.00
2018-06-14T06:11:28.254Z,95690.00
2018-06-14T06:12:00.276Z,95689.00
2018-06-14T06:12:32.274Z,95692.00
2018-06-14T06:13:04.293Z,95687.00
2018-06-14T06:13:36.312Z,95690.00
2018-06-14T06:14:08.322Z,95685.00
2018-06-14T06:14:40.341Z,95691.00
2018-06-14T06:15:12.384Z,95691.00
2018-06-14T06:15:44.408Z,95686.00
2018-06-14T06:16:16.438Z,95690.00
2018-06-14T06:16:48.438Z,95689.00
2018-06-14T06:17:20.475Z,95692.00
2018-06-14T06:17:52.498Z,95685.00
2018-06-14T06:18:24.534Z,95687.00
2018-06-14T06:18:56.545Z,95693.00
2018-06-14T06:19:28.553Z,95689.00
2018-06-14T06:20:00.568Z,95685.00
2018-06-14T06:20:32.581Z,95690.00
2018-06-14T06:21:04.625Z,95692.00
2018-06-14T06:21:36.661Z,95689.00
2018-06-14T06:22:08.670Z,95690.00